Time;durP1;ratioP1;P1;durP2;ratioP2;P2;SDS_P1;SDS_P2;PMS_P1;PMS_P2;Temp;Humidity;BMP_temperature;BMP_pressure;BME280_temperature;BME280_humidity;BME280_pressure;Samples;Min_cycle;Max_cycle;Signal;HPM_P1;HPM_P2
2022/09/24 00:01:53;;;;;;;49.10;34.63;;;;;;;;;;5045556;28;20189;-68
2022/09/24 00:04:18;;;;;;;46.17;33.58;;;;;;;;;;5031897;28;20166;-68
2022/09/24 00:06:47;;;;;;;43.97;32.42;;;;;;;;;;5058688;28;20234;-68
2022/09/24 00:09:16;;;;;;;47.40;32.35;;;;;;;;;;5040376;28;20265;-68
2022/09/24 00:11:44;;;;;;;52.67;35.42;;;;;;;;;;5041501;28;20189;-67
2022/09/24 00:14:10;;;;;;;44.33;32.08;;;;;;;;;;5047372;28;20185;-68
2022/09/24 00:16:37;;;;;;;40.97;30.58;;;;;;;;;;5043355;28;20187;-69
2022/09/24 00:19:04;;;;;;;40.88;28.02;;;;;;;;;;5064386;28;20601;-67
2022/09/24 00:21:32;;;;;;;44.88;31.63;;;;;;;;;;5063341;28;20336;-70
2022/09/24 00:24:00;;;;;;;40.20;30.48;;;;;;;;;;5044703;28;20253;-69
2022/09/24 00:29:12;;;;;;;40.30;29.58;;;;;;;;;;5048448;28;20196;-70
2022/09/24 00:31:38;;;;;;;39.60;29.95;;;;;;;;;;5038250;28;20220;-70
2022/09/24 00:34:04;;;;;;;46.03;31.35;;;;;;;;;;5061206;28;20189;-68
2022/09/24 00:36:29;;;;;;;46.92;31.27;;;;;;;;;;5048176;28;20217;-68
2022/09/24 00:38:57;;;;;;;43.25;30.27;;;;;;;;;;5062631;28;20185;-68
2022/09/24 00:41:25;;;;;;;40.72;28.83;;;;;;;;;;5042332;28;20547;-67
2022/09/24 00:43:50;;;;;;;38.28;28.40;;;;;;;;;;5053718;28;20257;-68
2022/09/24 00:46:39;;;;;;;40.60;29.90;;;;;;;;;;5052435;28;20661;-68
2022/09/24 00:49:16;;;;;;;49.80;28.88;;;;;;;;;;5060876;28;20375;-68
2022/09/24 00:51:45;;;;;;;37.28;28.02;;;;;;;;;;5062078;28;20516;-69
2022/09/24 00:54:21;;;;;;;36.60;27.00;;;;;;;;;;5044519;28;20189;-69
2022/09/24 00:56:48;;;;;;;34.90;24.60;;;;;;;;;;5050747;28;20203;-68
2022/09/24 00:59:17;;;;;;;32.45;23.63;;;;;;;;;;5047246;28;20178;-69
2022/09/24 01:01:45;;;;;;;32.95;24.08;;;;;;;;;;5047015;28;20193;-68
2022/09/24 01:04:11;;;;;;;32.28;23.85;;;;;;;;;;5044760;28;20272;-67
2022/09/24 01:06:37;;;;;;;31.35;23.15;;;;;;;;;;5051497;28;20219;-67
2022/09/24 01:09:03;;;;;;;28.92;21.48;;;;;;;;;;5048038;28;20197;-68
2022/09/24 01:11:50;;;;;;;31.33;21.88;;;;;;;;;;5040835;28;20192;-68
2022/09/24 01:14:43;;;;;;;27.42;20.30;;;;;;;;;;5060975;28;20185;-68
2022/09/24 01:17:35;;;;;;;30.35;20.52;;;;;;;;;;5050387;28;20227;-67
2022/09/24 01:20:36;;;;;;;29.38;20.92;;;;;;;;;;5027899;28;20185;-68
2022/09/24 01:23:24;;;;;;;26.42;20.55;;;;;;;;;;5053798;28;20294;-67
2022/09/24 01:26:02;;;;;;;27.73;19.95;;;;;;;;;;5062294;28;20205;-67
2022/09/24 01:28:30;;;;;;;25.25;19.83;;;;;;;;;;5053361;28;20561;-69
2022/09/24 01:31:04;;;;;;;29.58;19.73;;;;;;;;;;5053357;28;20664;-68
2022/09/24 01:33:32;;;;;;;29.17;20.95;;;;;;;;;;5040681;28;20204;-67
2022/09/24 01:36:03;;;;;;;28.17;20.83;;;;;;;;;;5038005;28;20260;-69
2022/09/24 01:38:33;;;;;;;28.23;20.75;;;;;;;;;;5053214;28;20178;-69
2022/09/24 01:41:02;;;;;;;25.90;20.13;;;;;;;;;;5038601;28;20196;-69
2022/09/24 01:43:29;;;;;;;28.88;20.55;;;;;;;;;;5059321;28;20617;-69
2022/09/24 01:45:57;;;;;;;29.48;21.15;;;;;;;;;;5042158;28;20242;-69
2022/09/24 01:48:23;;;;;;;28.35;21.88;;;;;;;;;;5050721;28;20188;-67
2022/09/24 01:51:23;;;;;;;29.48;21.27;;;;;;;;;;5045899;28;20444;-69
2022/09/24 01:53:57;;;;;;;28.77;19.88;;;;;;;;;;5046296;28;20193;-69
2022/09/24 01:56:25;;;;;;;27.08;19.52;;;;;;;;;;5033235;28;20257;-70
2022/09/24 01:58:59;;;;;;;27.38;19.80;;;;;;;;;;5036621;28;20637;-68
2022/09/24 02:01:31;;;;;;;27.08;20.02;;;;;;;;;;5042909;28;20554;-68
2022/09/24 02:04:05;;;;;;;32.58;21.38;;;;;;;;;;5046452;28;20231;-68
2022/09/24 02:06:40;;;;;;;26.23;19.30;;;;;;;;;;5054692;28;20196;-68
2022/09/24 02:09:36;;;;;;;34.58;22.52;;;;;;;;;;5045727;28;20199;-68
2022/09/24 02:12:17;;;;;;;33.35;21.63;;;;;;;;;;5055880;28;20231;-67
2022/09/24 02:15:05;;;;;;;24.95;18.58;;;;;;;;;;5045537;28;20268;-68
2022/09/24 02:17:33;;;;;;;25.30;18.55;;;;;;;;;;5060761;28;20181;-67
2022/09/24 02:20:01;;;;;;;28.83;19.92;;;;;;;;;;5042263;28;20178;-68
2022/09/24 02:22:29;;;;;;;27.83;20.15;;;;;;;;;;5040035;28;20233;-67
2022/09/24 02:25:00;;;;;;;28.02;19.67;;;;;;;;;;5053202;28;20619;-67
2022/09/24 02:27:29;;;;;;;34.80;20.90;;;;;;;;;;5052276;28;20220;-68
2022/09/24 02:29:58;;;;;;;25.73;20.38;;;;;;;;;;5062102;28;20192;-68
2022/09/24 02:32:26;;;;;;;29.70;20.38;;;;;;;;;;5039099;28;20705;-67
2022/09/24 02:34:56;;;;;;;26.10;18.98;;;;;;;;;;5056110;28;20267;-66
2022/09/24 02:37:23;;;;;;;27.30;20.63;;;;;;;;;;5052138;28;20612;-68
2022/09/24 02:39:49;;;;;;;29.13;21.00;;;;;;;;;;5049754;28;20653;-67
2022/09/24 02:42:15;;;;;;;26.63;19.80;;;;;;;;;;5029916;28;20196;-68
2022/09/24 02:44:41;;;;;;;28.75;21.17;;;;;;;;;;5030800;28;20235;-68
2022/09/24 02:47:07;;;;;;;28.08;21.40;;;;;;;;;;5026901;28;20252;-68
2022/09/24 02:49:32;;;;;;;24.98;18.52;;;;;;;;;;5027031;28;20190;-69
2022/09/24 02:51:57;;;;;;;27.77;21.05;;;;;;;;;;5038036;28;20529;-68
2022/09/24 02:54:24;;;;;;;26.00;19.65;;;;;;;;;;5033900;28;20668;-68
2022/09/24 02:56:49;;;;;;;26.77;20.13;;;;;;;;;;5026302;28;20547;-69
2022/09/24 02:59:15;;;;;;;25.52;19.85;;;;;;;;;;5031775;28;20189;-68
2022/09/24 03:01:41;;;;;;;28.05;20.73;;;;;;;;;;5026359;28;20193;-68
2022/09/24 03:04:06;;;;;;;30.13;21.55;;;;;;;;;;5031570;28;20233;-68
2022/09/24 03:06:31;;;;;;;27.85;20.65;;;;;;;;;;5036219;28;20206;-68
2022/09/24 03:08:57;;;;;;;27.20;19.90;;;;;;;;;;5030718;28;20240;-68
2022/09/24 03:11:22;;;;;;;28.50;21.92;;;;;;;;;;5029575;28;20178;-69
2022/09/24 03:13:49;;;;;;;29.73;21.65;;;;;;;;;;5041675;28;20189;-69
2022/09/24 03:16:16;;;;;;;28.92;21.90;;;;;;;;;;5035041;28;20644;-69
2022/09/24 03:18:41;;;;;;;27.17;20.65;;;;;;;;;;5030593;28;20190;-69
2022/09/24 03:21:10;;;;;;;28.55;22.38;;;;;;;;;;5042443;28;20182;-70
2022/09/24 03:23:36;;;;;;;30.52;21.88;;;;;;;;;;5043168;28;20748;-69
2022/09/24 03:26:01;;;;;;;31.75;22.95;;;;;;;;;;5053512;28;20202;-69
2022/09/24 03:28:27;;;;;;;29.98;21.88;;;;;;;;;;5052564;28;20673;-69
2022/09/24 03:30:58;;;;;;;29.83;22.30;;;;;;;;;;5055584;28;20241;-70
2022/09/24 03:33:40;;;;;;;29.58;22.55;;;;;;;;;;5042551;28;20209;-70
2022/09/24 03:36:16;;;;;;;29.23;21.63;;;;;;;;;;5037092;28;20308;-70
2022/09/24 03:38:43;;;;;;;31.42;23.27;;;;;;;;;;5060255;28;20192;-70
2022/09/24 03:41:10;;;;;;;33.58;23.27;;;;;;;;;;5050243;28;20668;-70
2022/09/24 03:43:36;;;;;;;33.50;24.38;;;;;;;;;;5049630;28;20721;-70
2022/09/24 03:46:02;;;;;;;33.47;23.95;;;;;;;;;;5052590;28;20350;-70
2022/09/24 03:48:29;;;;;;;34.30;23.55;;;;;;;;;;5053905;28;20668;-70
2022/09/24 03:50:54;;;;;;;34.40;25.13;;;;;;;;;;5035224;28;20185;-70
2022/09/24 03:53:21;;;;;;;34.65;25.13;;;;;;;;;;5029804;28;20186;-70
2022/09/24 03:55:51;;;;;;;30.20;22.42;;;;;;;;;;5032332;28;20178;-69
2022/09/24 03:58:17;;;;;;;34.40;24.65;;;;;;;;;;5030413;28;20705;-70
2022/09/24 04:00:42;;;;;;;38.40;26.30;;;;;;;;;;5037890;28;20639;-71
2022/09/24 04:03:08;;;;;;;36.05;24.88;;;;;;;;;;5039860;28;20250;-70
2022/09/24 04:05:34;;;;;;;36.05;25.25;;;;;;;;;;5028809;28;20205;-70
2022/09/24 04:08:00;;;;;;;34.88;23.33;;;;;;;;;;5028546;28;20759;-69
2022/09/24 04:10:25;;;;;;;39.45;25.63;;;;;;;;;;5031752;28;20190;-69
2022/09/24 04:12:51;;;;;;;36.28;24.90;;;;;;;;;;5030390;28;20685;-70
2022/09/24 04:15:17;;;;;;;42.40;26.73;;;;;;;;;;5034165;28;20277;-70
2022/09/24 04:17:53;;;;;;;41.63;26.70;;;;;;;;;;5031407;28;20211;-69
2022/09/24 04:20:21;;;;;;;42.05;27.15;;;;;;;;;;5044621;28;20267;-70
2022/09/24 04:22:48;;;;;;;43.45;27.27;;;;;;;;;;5044822;28;20192;-70
2022/09/24 04:25:14;;;;;;;42.88;27.73;;;;;;;;;;5048080;28;20398;-69
2022/09/24 04:27:40;;;;;;;38.50;26.05;;;;;;;;;;5043518;28;20295;-70
2022/09/24 04:30:06;;;;;;;40.75;27.02;;;;;;;;;;5056669;28;20264;-69
2022/09/24 04:32:31;;;;;;;41.97;27.83;;;;;;;;;;5046791;28;20197;-70
2022/09/24 04:34:57;;;;;;;35.55;25.58;;;;;;;;;;5056282;28;20831;-70
2022/09/24 04:37:22;;;;;;;40.88;26.77;;;;;;;;;;5048010;28;20285;-70
2022/09/24 04:39:47;;;;;;;39.95;26.52;;;;;;;;;;5048030;28;20213;-69
2022/09/24 04:42:17;;;;;;;41.58;27.83;;;;;;;;;;5032955;28;20186;-70
2022/09/24 04:44:45;;;;;;;38.38;27.15;;;;;;;;;;5052032;28;20177;-69
2022/09/24 04:47:11;;;;;;;37.88;26.27;;;;;;;;;;5033294;28;20216;-70
2022/09/24 04:49:36;;;;;;;34.70;24.77;;;;;;;;;;5059248;28;20235;-69
2022/09/24 04:52:01;;;;;;;35.53;26.40;;;;;;;;;;5046709;28;20189;-70
2022/09/24 04:54:28;;;;;;;41.25;28.58;;;;;;;;;;5028690;28;20178;-70
2022/09/24 04:56:54;;;;;;;39.95;27.65;;;;;;;;;;5040093;28;20204;-69
2022/09/24 04:59:20;;;;;;;37.67;26.80;;;;;;;;;;5042988;28;20502;-70
2022/09/24 05:01:46;;;;;;;36.00;24.83;;;;;;;;;;5046186;28;20195;-70
2022/09/24 05:04:11;;;;;;;37.05;27.52;;;;;;;;;;5031357;28;20186;-70
2022/09/24 05:06:36;;;;;;;35.90;24.75;;;;;;;;;;5035655;28;20205;-69
2022/09/24 05:09:02;;;;;;;37.40;25.98;;;;;;;;;;5035282;28;20193;-70
2022/09/24 05:11:27;;;;;;;38.78;26.50;;;;;;;;;;5027570;28;20201;-70
2022/09/24 05:13:53;;;;;;;38.10;27.25;;;;;;;;;;5028585;28;20235;-69
2022/09/24 05:16:18;;;;;;;37.47;27.67;;;;;;;;;;5026982;28;20174;-70
2022/09/24 05:18:43;;;;;;;39.20;27.70;;;;;;;;;;5027585;28;20254;-70
2022/09/24 05:21:09;;;;;;;38.70;27.77;;;;;;;;;;5033071;28;20188;-71
2022/09/24 05:23:34;;;;;;;40.35;26.60;;;;;;;;;;5031209;28;20273;-70
2022/09/24 05:28:43;;;;;;;40.42;27.15;;;;;;;;;;5038766;28;20209;-70
2022/09/24 05:31:09;;;;;;;39.90;26.17;;;;;;;;;;5046468;28;20177;-70
2022/09/24 05:33:35;;;;;;;33.83;23.60;;;;;;;;;;5033174;28;20428;-70
2022/09/24 05:36:01;;;;;;;37.33;25.98;;;;;;;;;;5036225;28;20272;-71
2022/09/24 05:38:26;;;;;;;39.70;27.02;;;;;;;;;;5026786;28;20185;-70
2022/09/24 05:40:51;;;;;;;41.47;25.98;;;;;;;;;;5039061;28;20539;-70
2022/09/24 05:43:20;;;;;;;38.75;26.77;;;;;;;;;;5037298;28;20177;-71
2022/09/24 05:45:46;;;;;;;38.65;27.17;;;;;;;;;;5041037;28;20199;-70
2022/09/24 05:48:11;;;;;;;35.30;24.38;;;;;;;;;;5046034;28;20193;-70
2022/09/24 05:50:37;;;;;;;35.75;25.55;;;;;;;;;;5034077;28;20235;-70
2022/09/24 05:53:04;;;;;;;37.13;25.98;;;;;;;;;;5040528;28;20599;-70
2022/09/24 05:55:30;;;;;;;42.58;27.48;;;;;;;;;;5032845;28;20202;-70
2022/09/24 05:58:01;;;;;;;37.88;26.92;;;;;;;;;;5030212;28;20229;-70
2022/09/24 06:00:26;;;;;;;36.47;26.13;;;;;;;;;;5030859;28;20735;-70
2022/09/24 06:02:52;;;;;;;38.05;25.30;;;;;;;;;;5034847;28;20178;-70
2022/09/24 06:05:17;;;;;;;38.85;26.75;;;;;;;;;;5029784;28;20273;-70
2022/09/24 06:07:42;;;;;;;38.65;25.88;;;;;;;;;;5052852;28;20287;-70
2022/09/24 06:10:08;;;;;;;35.70;26.50;;;;;;;;;;5033741;28;20209;-70
2022/09/24 06:12:33;;;;;;;41.13;27.83;;;;;;;;;;5041299;28;20193;-69
2022/09/24 06:15:00;;;;;;;37.53;26.00;;;;;;;;;;5041976;28;20169;-70
2022/09/24 06:17:26;;;;;;;33.90;24.60;;;;;;;;;;5040264;28;20289;-70
2022/09/24 06:19:51;;;;;;;37.58;25.75;;;;;;;;;;5036405;28;20178;-70
2022/09/24 06:22:16;;;;;;;35.85;25.67;;;;;;;;;;5036724;28;20181;-70
2022/09/24 06:24:42;;;;;;;37.42;26.65;;;;;;;;;;5030751;28;20170;-70
2022/09/24 06:27:07;;;;;;;39.25;26.67;;;;;;;;;;5031142;28;20618;-70
2022/09/24 06:29:33;;;;;;;34.83;25.50;;;;;;;;;;5028983;28;20185;-70
2022/09/24 06:32:00;;;;;;;35.97;25.92;;;;;;;;;;5028084;28;20212;-69
2022/09/24 06:34:26;;;;;;;40.72;26.05;;;;;;;;;;5029426;28;20178;-70
2022/09/24 06:36:55;;;;;;;34.35;23.27;;;;;;;;;;5035877;28;20185;-70
2022/09/24 06:39:24;;;;;;;34.53;24.90;;;;;;;;;;5043077;28;20537;-71
2022/09/24 06:41:50;;;;;;;35.45;24.90;;;;;;;;;;5034788;28;20182;-69
2022/09/24 06:44:17;;;;;;;32.10;22.42;;;;;;;;;;5037125;28;20189;-69
2022/09/24 06:46:44;;;;;;;34.63;23.92;;;;;;;;;;4397931;28;10001858;-69
2022/09/24 06:49:11;;;;;;;35.72;25.38;;;;;;;;;;5035092;28;20401;-69
2022/09/24 06:51:36;;;;;;;31.50;22.83;;;;;;;;;;5038581;28;20520;-69
2022/09/24 06:54:02;;;;;;;31.73;22.88;;;;;;;;;;5050748;28;20182;-69
2022/09/24 06:56:29;;;;;;;32.40;23.90;;;;;;;;;;5055562;28;20191;-70
2022/09/24 06:58:55;;;;;;;32.55;23.08;;;;;;;;;;5037022;28;20182;-69
2022/09/24 07:01:20;;;;;;;30.75;23.05;;;;;;;;;;5036859;28;20477;-69
2022/09/24 07:03:46;;;;;;;33.58;23.80;;;;;;;;;;5039873;28;20190;-70
2022/09/24 07:06:11;;;;;;;31.33;21.67;;;;;;;;;;5033260;28;20295;-70
2022/09/24 07:08:36;;;;;;;29.70;22.20;;;;;;;;;;5039026;28;20284;-70
2022/09/24 07:11:02;;;;;;;29.83;21.40;;;;;;;;;;5040109;28;20262;-70
2022/09/24 07:13:28;;;;;;;29.70;21.70;;;;;;;;;;5045143;28;20185;-70
2022/09/24 07:15:54;;;;;;;31.48;22.90;;;;;;;;;;5031723;28;20676;-69
2022/09/24 07:18:19;;;;;;;28.27;20.83;;;;;;;;;;5035263;28;20190;-70
2022/09/24 07:20:51;;;;;;;28.05;21.17;;;;;;;;;;5031524;28;20608;-69
2022/09/24 07:23:17;;;;;;;30.85;21.77;;;;;;;;;;5056059;28;20712;-69
2022/09/24 07:25:43;;;;;;;27.65;20.88;;;;;;;;;;5029201;28;20220;-70
2022/09/24 07:28:12;;;;;;;28.25;20.80;;;;;;;;;;5044369;28;20255;-70
2022/09/24 07:30:38;;;;;;;28.58;20.70;;;;;;;;;;5051511;28;20617;-71
2022/09/24 07:33:04;;;;;;;30.98;21.05;;;;;;;;;;5041124;28;20211;-69
2022/09/24 07:35:30;;;;;;;29.88;20.05;;;;;;;;;;5045742;28;20175;-69
2022/09/24 07:38:07;;;;;;;26.50;18.42;;;;;;;;;;4690844;28;9999955;-69
2022/09/24 07:40:32;;;;;;;26.98;20.40;;;;;;;;;;5038842;28;20744;-69
2022/09/24 07:42:59;;;;;;;28.38;20.70;;;;;;;;;;5042387;28;20280;-69
2022/09/24 07:45:27;;;;;;;25.20;18.65;;;;;;;;;;5042069;28;20560;-69
2022/09/24 07:48:01;;;;;;;27.67;21.55;;;;;;;;;;5036475;28;20728;-69
2022/09/24 07:50:28;;;;;;;28.13;21.42;;;;;;;;;;5023158;28;20222;-69
2022/09/24 07:52:54;;;;;;;27.27;21.02;;;;;;;;;;5031770;28;20336;-69
2022/09/24 07:55:20;;;;;;;29.30;22.05;;;;;;;;;;5024686;28;20178;-69
2022/09/24 07:57:47;;;;;;;30.40;22.27;;;;;;;;;;5025769;28;20231;-70
2022/09/24 08:00:13;;;;;;;27.67;21.67;;;;;;;;;;5026372;28;20544;-70
2022/09/24 08:02:38;;;;;;;26.55;19.77;;;;;;;;;;5026836;28;20255;-69
2022/09/24 08:05:04;;;;;;;28.27;21.52;;;;;;;;;;5026068;28;20198;-71
2022/09/24 08:07:30;;;;;;;25.63;19.88;;;;;;;;;;5031196;28;20255;-70
2022/09/24 08:09:55;;;;;;;26.48;18.77;;;;;;;;;;5042763;28;20211;-70
2022/09/24 08:12:25;;;;;;;30.85;21.25;;;;;;;;;;5044605;28;20204;-70
2022/09/24 08:14:50;;;;;;;28.40;21.63;;;;;;;;;;5028270;28;20186;-70
2022/09/24 08:17:16;;;;;;;31.33;21.42;;;;;;;;;;5028140;28;20235;-70
2022/09/24 08:19:42;;;;;;;28.95;21.20;;;;;;;;;;5036060;28;20251;-70
2022/09/24 08:22:07;;;;;;;26.67;19.92;;;;;;;;;;5034391;28;20320;-70
2022/09/24 08:24:33;;;;;;;30.80;20.45;;;;;;;;;;5043490;28;20708;-68
2022/09/24 08:26:58;;;;;;;26.83;20.67;;;;;;;;;;5034220;28;20753;-70
2022/09/24 08:29:24;;;;;;;26.52;20.27;;;;;;;;;;5048430;28;20488;-70
2022/09/24 08:31:49;;;;;;;27.52;20.15;;;;;;;;;;5039054;28;20209;-70
2022/09/24 08:34:14;;;;;;;28.02;20.63;;;;;;;;;;5047764;28;20226;-70
2022/09/24 08:36:40;;;;;;;28.48;21.10;;;;;;;;;;5035334;28;20516;-69
2022/09/24 08:39:07;;;;;;;25.10;19.30;;;;;;;;;;5056409;28;20600;-70
2022/09/24 08:41:59;;;;;;;27.52;20.27;;;;;;;;;;5044479;28;20232;-70
2022/09/24 08:47:28;;;;;;;25.80;19.75;;;;;;;;;;5043972;28;20262;-69
2022/09/24 08:50:06;;;;;;;24.02;18.75;;;;;;;;;;5040621;28;20243;-69
2022/09/24 08:52:41;;;;;;;25.77;18.42;;;;;;;;;;5030483;28;20252;-69
2022/09/24 08:55:20;;;;;;;26.50;19.95;;;;;;;;;;5037708;28;20747;-69
2022/09/24 08:58:24;;;;;;;24.48;18.98;;;;;;;;;;5053451;28;20266;-69
2022/09/24 09:01:11;;;;;;;27.70;20.30;;;;;;;;;;5051883;28;20193;-69
2022/09/24 09:03:44;;;;;;;25.08;19.02;;;;;;;;;;5066819;28;20286;-69
2022/09/24 09:06:24;;;;;;;30.23;20.23;;;;;;;;;;5041299;28;20204;-69
2022/09/24 09:09:03;;;;;;;26.23;19.17;;;;;;;;;;5068749;28;20203;-69
2022/09/24 09:11:31;;;;;;;25.50;19.08;;;;;;;;;;5053275;28;20303;-67
2022/09/24 09:14:12;;;;;;;25.17;19.52;;;;;;;;;;5068234;28;20184;-69
2022/09/24 09:16:49;;;;;;;25.13;19.23;;;;;;;;;;5054737;28;20203;-69
2022/09/24 09:19:16;;;;;;;25.58;19.65;;;;;;;;;;5061679;28;20193;-69
2022/09/24 09:21:51;;;;;;;26.98;20.02;;;;;;;;;;5042391;28;20209;-70
2022/09/24 09:24:42;;;;;;;28.40;20.92;;;;;;;;;;5061522;28;20259;-70
2022/09/24 09:27:13;;;;;;;23.45;17.88;;;;;;;;;;5049482;28;20257;-70
2022/09/24 09:29:39;;;;;;;24.60;19.45;;;;;;;;;;5044094;28;20684;-70
2022/09/24 09:32:28;;;;;;;27.83;19.77;;;;;;;;;;5042452;28;20205;-69
2022/09/24 09:35:18;;;;;;;23.67;19.50;;;;;;;;;;5036459;28;20626;-70
2022/09/24 09:38:17;;;;;;;26.38;19.52;;;;;;;;;;5034056;28;20181;-71
2022/09/24 09:41:03;;;;;;;27.50;19.27;;;;;;;;;;5046470;28;20193;-70
2022/09/24 09:43:29;;;;;;;29.05;19.83;;;;;;;;;;5033011;28;20205;-70
2022/09/24 09:46:17;;;;;;;24.63;19.10;;;;;;;;;;5036877;28;20470;-69
2022/09/24 09:48:45;;;;;;;26.50;18.92;;;;;;;;;;5035730;28;20192;-70
2022/09/24 09:51:18;;;;;;;28.80;19.95;;;;;;;;;;5043197;28;20269;-70
2022/09/24 09:53:57;;;;;;;28.13;18.30;;;;;;;;;;5046905;28;20256;-69
2022/09/24 09:56:33;;;;;;;25.63;17.73;;;;;;;;;;5042515;28;20638;-69
2022/09/24 09:59:18;;;;;;;25.25;19.48;;;;;;;;;;5041426;28;20184;-70
2022/09/24 10:01:46;;;;;;;27.15;19.73;;;;;;;;;;5030720;28;20201;-70
2022/09/24 10:04:36;;;;;;;23.85;19.13;;;;;;;;;;5038454;28;20177;-70
2022/09/24 10:07:09;;;;;;;26.75;19.90;;;;;;;;;;5034777;28;20217;-70
2022/09/24 10:09:37;;;;;;;27.17;19.60;;;;;;;;;;5034659;28;20565;-70
2022/09/24 10:12:08;;;;;;;27.45;19.90;;;;;;;;;;5043582;28;20177;-70
2022/09/24 10:14:33;;;;;;;28.25;20.83;;;;;;;;;;5042262;28;20234;-71
2022/09/24 10:17:04;;;;;;;29.85;21.17;;;;;;;;;;5048001;28;20187;-70
2022/09/24 10:19:33;;;;;;;28.58;20.67;;;;;;;;;;5046240;28;20700;-70
2022/09/24 10:22:15;;;;;;;27.70;20.83;;;;;;;;;;5046355;28;20185;-70
2022/09/24 10:24:42;;;;;;;29.10;20.77;;;;;;;;;;5038842;28;20190;-71
2022/09/24 10:27:12;;;;;;;27.95;20.67;;;;;;;;;;5042530;28;20228;-70
2022/09/24 10:32:25;;;;;;;32.50;21.45;;;;;;;;;;5052704;28;20277;-71
2022/09/24 10:34:59;;;;;;;28.50;21.00;;;;;;;;;;5047835;28;20703;-70
2022/09/24 10:37:25;;;;;;;31.92;21.63;;;;;;;;;;5049530;28;20188;-70
2022/09/24 10:40:10;;;;;;;29.05;19.75;;;;;;;;;;5060680;28;20192;-70
2022/09/24 10:42:36;;;;;;;28.30;20.02;;;;;;;;;;5048524;28;20272;-70
2022/09/24 10:45:03;;;;;;;28.90;19.50;;;;;;;;;;5059025;28;20261;-70
2022/09/24 10:47:59;;;;;;;26.00;19.60;;;;;;;;;;5032787;28;20689;-70
2022/09/24 10:50:36;;;;;;;24.70;19.13;;;;;;;;;;5046317;28;20221;-71
2022/09/24 10:53:26;;;;;;;24.48;18.30;;;;;;;;;;5046343;28;20656;-70
2022/09/24 10:56:10;;;;;;;26.60;17.92;;;;;;;;;;5064159;28;20289;-70
2022/09/24 10:58:54;;;;;;;24.80;17.80;;;;;;;;;;5038322;28;20600;-71
2022/09/24 11:01:35;;;;;;;26.25;18.52;;;;;;;;;;5037214;28;20173;-71
2022/09/24 11:04:22;;;;;;;27.02;18.00;;;;;;;;;;5049132;28;20189;-71
2022/09/24 11:07:08;;;;;;;24.33;18.00;;;;;;;;;;5040421;28;20701;-71
2022/09/24 11:09:46;;;;;;;25.73;17.98;;;;;;;;;;5044008;28;20185;-72
2022/09/24 11:12:30;;;;;;;26.55;19.15;;;;;;;;;;5050835;28;20185;-71
2022/09/24 11:15:21;;;;;;;26.08;18.45;;;;;;;;;;5045363;28;20183;-70
2022/09/24 11:18:10;;;;;;;26.88;19.27;;;;;;;;;;5045170;28;20182;-71
2022/09/24 11:20:38;;;;;;;23.50;19.50;;;;;;;;;;5039795;28;20186;-71
2022/09/24 11:23:40;;;;;;;24.38;19.35;;;;;;;;;;5032339;28;20741;-72
2022/09/24 11:26:22;;;;;;;27.08;19.90;;;;;;;;;;5034621;28;20244;-73
2022/09/24 11:28:59;;;;;;;27.02;19.77;;;;;;;;;;5042654;28;20178;-73
2022/09/24 11:31:41;;;;;;;22.95;17.58;;;;;;;;;;5051771;28;20208;-74
2022/09/24 11:34:30;;;;;;;24.73;17.33;;;;;;;;;;5043158;28;20173;-74
2022/09/24 11:37:14;;;;;;;22.27;16.88;;;;;;;;;;5043702;28;20174;-73
2022/09/24 11:39:54;;;;;;;23.10;16.85;;;;;;;;;;5039777;28;20169;-73
2022/09/24 11:42:30;;;;;;;22.38;16.33;;;;;;;;;;5035356;28;20197;-73
2022/09/24 11:45:04;;;;;;;21.23;16.42;;;;;;;;;;5028876;28;20255;-72
2022/09/24 11:47:39;;;;;;;19.02;14.63;;;;;;;;;;5032357;28;20661;-72
2022/09/24 11:50:04;;;;;;;20.02;15.30;;;;;;;;;;5028379;28;20178;-71
2022/09/24 11:52:42;;;;;;;18.45;14.18;;;;;;;;;;5031204;28;20235;-71
2022/09/24 11:55:22;;;;;;;20.20;15.45;;;;;;;;;;5029610;28;20641;-71
2022/09/24 11:58:01;;;;;;;18.92;15.07;;;;;;;;;;5030804;28;20182;-71
2022/09/24 12:00:34;;;;;;;19.60;14.20;;;;;;;;;;5029919;28;20178;-73
2022/09/24 12:03:17;;;;;;;19.30;15.32;;;;;;;;;;5030056;28;20217;-74
2022/09/24 12:05:55;;;;;;;19.25;14.68;;;;;;;;;;5032849;28;20201;-75
2022/09/24 12:08:30;;;;;;;17.73;13.43;;;;;;;;;;5034433;28;20619;-76
2022/09/24 12:11:21;;;;;;;18.50;14.15;;;;;;;;;;5029805;28;20212;-76
2022/09/24 12:13:54;;;;;;;18.52;14.60;;;;;;;;;;5036702;28;20673;-75
2022/09/24 12:16:26;;;;;;;17.35;13.32;;;;;;;;;;5030278;28;20221;-74
2022/09/24 12:18:57;;;;;;;16.80;12.63;;;;;;;;;;5042528;28;20200;-75
2022/09/24 12:21:28;;;;;;;16.15;12.20;;;;;;;;;;5029352;28;20247;-76
2022/09/24 12:24:00;;;;;;;19.50;13.13;;;;;;;;;;5034786;28;20189;-74
2022/09/24 12:26:27;;;;;;;16.40;11.52;;;;;;;;;;5030695;28;20244;-74
2022/09/24 12:35:18;;;;;;;12.05;9.07;;;;;;;;;;4340252;28;10000848;-77
2022/09/24 12:37:46;;;;;;;10.45;9.20;;;;;;;;;;5027467;28;20952;-76
2022/09/24 12:40:40;;;;;;;12.02;9.90;;;;;;;;;;5031328;28;20676;-75
2022/09/24 12:43:17;;;;;;;13.90;9.88;;;;;;;;;;5026434;28;20262;-75
2022/09/24 12:45:43;;;;;;;13.15;10.25;;;;;;;;;;5030560;28;20705;-75
2022/09/24 12:48:14;;;;;;;11.15;9.48;;;;;;;;;;5025994;28;20213;-76
2022/09/24 12:50:40;;;;;;;11.70;8.93;;;;;;;;;;5030714;28;20180;-75
2022/09/24 12:53:23;;;;;;;11.40;8.95;;;;;;;;;;5026956;28;20186;-75
2022/09/24 12:55:49;;;;;;;11.05;9.20;;;;;;;;;;5035524;28;20445;-75
2022/09/24 12:58:40;;;;;;;11.68;9.73;;;;;;;;;;5031527;28;20626;-75
2022/09/24 13:01:25;;;;;;;12.23;9.68;;;;;;;;;;5031583;28;20190;-75
2022/09/24 13:04:20;;;;;;;8.88;7.03;;;;;;;;;;5032855;28;20273;-75
2022/09/24 13:06:48;;;;;;;4.43;3.95;;;;;;;;;;5038632;28;20225;-75
2022/09/24 13:09:39;;;;;;;4.18;3.58;;;;;;;;;;5033660;28;20255;-75
2022/09/24 13:12:14;;;;;;;3.35;3.05;;;;;;;;;;5032681;28;20285;-77
2022/09/24 13:14:42;;;;;;;4.20;3.80;;;;;;;;;;5042830;28;20192;-74
2022/09/24 13:17:07;;;;;;;6.07;4.47;;;;;;;;;;5031429;28;20518;-75
2022/09/24 13:19:41;;;;;;;6.03;5.40;;;;;;;;;;5032961;28;20193;-75
2022/09/24 13:22:28;;;;;;;6.57;5.88;;;;;;;;;;5035296;28;20278;-76
2022/09/24 13:25:06;;;;;;;6.95;5.30;;;;;;;;;;5043773;28;20667;-75
2022/09/24 13:27:31;;;;;;;6.30;5.55;;;;;;;;;;5046698;28;20240;-75
2022/09/24 13:30:15;;;;;;;6.95;6.10;;;;;;;;;;5034507;28;20264;-76
2022/09/24 13:32:57;;;;;;;9.90;7.65;;;;;;;;;;5038590;28;20201;-76
2022/09/24 13:35:30;;;;;;;9.13;7.50;;;;;;;;;;5058199;28;20523;-76
2022/09/24 13:38:07;;;;;;;10.50;9.10;;;;;;;;;;5038002;28;20265;-75
2022/09/24 13:40:38;;;;;;;11.00;7.72;;;;;;;;;;5039916;28;20275;-75
2022/09/24 13:43:40;;;;;;;9.25;8.10;;;;;;;;;;5050121;28;20178;-76
2022/09/24 13:46:13;;;;;;;13.25;8.68;;;;;;;;;;5046469;28;20213;-76
2022/09/24 13:48:48;;;;;;;10.45;8.43;;;;;;;;;;5034840;28;20194;-76
2022/09/24 13:51:16;;;;;;;9.98;7.72;;;;;;;;;;5035305;28;20259;-78
2022/09/24 13:53:48;;;;;;;9.93;7.40;;;;;;;;;;5045878;28;20219;-77
2022/09/24 13:56:17;;;;;;;10.15;7.85;;;;;;;;;;5046442;28;20177;-76
2022/09/24 13:58:42;;;;;;;7.70;6.70;;;;;;;;;;5033596;28;20192;-75
2022/09/24 14:01:23;;;;;;;8.68;6.45;;;;;;;;;;5032097;28;20177;-76
2022/09/24 14:03:55;;;;;;;7.10;6.03;;;;;;;;;;5032426;28;20181;-74
2022/09/24 14:06:32;;;;;;;7.63;6.13;;;;;;;;;;5032949;28;20236;-73
2022/09/24 14:08:57;;;;;;;7.93;6.30;;;;;;;;;;5037328;28;20258;-73
2022/09/24 14:11:24;;;;;;;9.25;6.60;;;;;;;;;;5040966;28;20255;-73
2022/09/24 14:13:50;;;;;;;9.55;7.47;;;;;;;;;;5033600;28;20198;-73
2022/09/24 14:16:20;;;;;;;11.77;7.97;;;;;;;;;;5040035;28;20900;-72
2022/09/24 14:18:46;;;;;;;9.98;8.27;;;;;;;;;;5044545;28;20197;-73
2022/09/24 14:21:23;;;;;;;10.05;8.07;;;;;;;;;;5042691;28;20215;-73
2022/09/24 14:24:03;;;;;;;12.90;7.22;;;;;;;;;;5050410;28;20238;-72
2022/09/24 14:26:32;;;;;;;11.60;7.72;;;;;;;;;;5054111;28;20299;-72
2022/09/24 14:29:02;;;;;;;17.08;8.02;;;;;;;;;;5046770;28;20316;-72
2022/09/24 14:31:28;;;;;;;13.05;7.93;;;;;;;;;;5053979;28;20553;-72
2022/09/24 14:33:53;;;;;;;11.40;7.05;;;;;;;;;;5048382;28;20201;-72
2022/09/24 14:36:26;;;;;;;12.18;7.80;;;;;;;;;;5054422;28;20174;-72
2022/09/24 14:39:00;;;;;;;13.23;8.32;;;;;;;;;;5037257;28;20192;-71
2022/09/24 14:41:30;;;;;;;18.38;8.48;;;;;;;;;;5057296;28;20662;-71
2022/09/24 14:44:01;;;;;;;16.67;10.38;;;;;;;;;;5044590;28;20177;-72
2022/09/24 14:46:30;;;;;;;21.55;10.82;;;;;;;;;;5041115;28;20209;-72
2022/09/24 14:49:26;;;;;;;16.40;9.73;;;;;;;;;;5049375;28;20653;-72
2022/09/24 14:51:54;;;;;;;14.95;9.30;;;;;;;;;;5038747;28;20205;-72
2022/09/24 14:54:27;;;;;;;15.35;7.82;;;;;;;;;;5039499;28;20194;-71
2022/09/24 14:56:53;;;;;;;14.43;6.38;;;;;;;;;;5039796;28;20488;-71
2022/09/24 14:59:30;;;;;;;13.07;6.65;;;;;;;;;;5047401;28;20478;-71
2022/09/24 15:02:14;;;;;;;12.88;5.97;;;;;;;;;;5039049;28;20181;-71